Time;durP1;ratioP1;P1;durP2;ratioP2;P2;SDS_P1;SDS_P2;PMS_P1;PMS_P2;Temp;Humidity;BMP_temperature;BMP_pressure;BME280_temperature;BME280_humidity;BME280_pressure;Samples;Min_cycle;Max_cycle;Signal;HPM_P1;HPM_P2
2021/12/14 00:01:42;;;;;;;45.28;18.80;;;;;;;0.80;nan;101453.72;5032160;28;20534;-72
2021/12/14 00:04:33;;;;;;;42.28;18.17;;;;;;;0.95;nan;101480.06;5024004;28;20045;-71
2021/12/14 00:07:19;;;;;;;40.08;16.52;;;;;;;1.04;nan;101496.59;5023147;28;20068;-72
2021/12/14 00:13:43;;;;;;;37.03;17.17;;;;;;;1.03;nan;101505.31;5002764;28;20101;-71
2021/12/14 00:16:29;;;;;;;46.15;18.92;;;;;;;0.95;nan;101481.84;5001726;28;20471;-72
2021/12/14 00:19:16;;;;;;;51.15;19.55;;;;;;;0.92;nan;101482.13;5001925;28;20444;-72
2021/12/14 00:22:17;;;;;;;39.55;17.10;;;;;;;0.96;nan;101505.06;5005996;28;20150;-72
2021/12/14 00:25:05;;;;;;;46.50;17.75;;;;;;;0.98;nan;101500.56;5002669;28;20034;-72
2021/12/14 00:27:51;;;;;;;47.60;18.90;;;;;;;0.95;nan;101497.41;4987061;28;23324;-72
2021/12/14 00:30:37;;;;;;;43.50;17.65;;;;;;;0.99;nan;101509.97;4998842;28;20034;-72
2021/12/14 00:33:26;;;;;;;41.95;17.85;;;;;;;0.99;nan;101504.78;4998300;28;20404;-72
2021/12/14 00:36:12;;;;;;;39.78;18.98;;;;;;;1.02;nan;101508.88;4999128;28;20054;-72
2021/12/14 00:38:58;;;;;;;40.15;17.10;;;;;;;0.65;nan;101452.47;4998067;28;20117;-71
2021/12/14 00:41:44;;;;;;;39.00;16.73;;;;;;;0.96;nan;101505.06;5000838;28;20041;-72
2021/12/14 00:44:32;;;;;;;38.00;17.13;;;;;;;0.97;nan;101498.91;5001374;28;20049;-71
2021/12/14 00:47:19;;;;;;;43.63;18.10;;;;;;;1.05;nan;101514.63;4997863;28;20061;-72
2021/12/14 00:50:06;;;;;;;41.70;18.40;;;;;;;1.08;nan;101515.28;5008162;28;20041;-72
2021/12/14 00:52:52;;;;;;;37.40;17.25;;;;;;;0.99;nan;101506.56;5021502;28;20037;-72
2021/12/14 00:55:42;;;;;;;40.67;17.08;;;;;;;1.05;nan;101525.00;5022665;28;20056;-72
2021/12/14 00:58:28;;;;;;;42.30;17.35;;;;;;;1.01;nan;101513.25;5023412;28;20491;-71
2021/12/14 01:01:25;;;;;;;39.63;17.77;;;;;;;1.02;nan;101527.84;5020339;28;20052;-71
2021/12/14 01:04:16;;;;;;;47.35;18.73;;;;;;;1.00;nan;101516.78;5020459;28;20499;-70
2021/12/14 01:07:03;;;;;;;39.38;17.63;;;;;;;0.99;nan;101522.13;5023561;28;20042;-72
2021/12/14 01:09:56;;;;;;;41.35;18.27;;;;;;;0.92;nan;101506.28;5022586;28;20557;-72
2021/12/14 01:12:49;;;;;;;42.15;18.63;;;;;;;1.04;nan;101528.53;5022276;28;20033;-71
2021/12/14 01:27:35;;;;;;;44.50;20.67;;;;;;;1.02;nan;101503.69;5027030;28;20115;-72
2021/12/14 01:30:29;;;;;;;40.83;18.27;;;;;;;1.11;nan;101515.84;5021767;28;20052;-72
2021/12/14 01:33:16;;;;;;;44.00;18.95;;;;;;;1.16;nan;101520.63;5022250;28;20033;-72
2021/12/14 01:36:09;;;;;;;42.70;19.27;;;;;;;1.15;nan;101521.56;5022448;28;20064;-71
2021/12/14 01:42:37;;;;;;;43.80;19.67;;;;;;;1.24;nan;101513.78;5024539;28;20099;-71
2021/12/14 01:45:24;;;;;;;46.92;19.52;;;;;;;1.31;nan;101526.25;5019619;28;20102;-72
2021/12/14 01:48:11;;;;;;;40.60;18.35;;;;;;;1.30;nan;101512.44;5020067;28;20494;-71
2021/12/14 01:50:59;;;;;;;50.97;20.67;;;;;;;1.34;nan;101519.00;5018968;28;20491;-71
2021/12/14 01:53:49;;;;;;;50.03;20.83;;;;;;;1.36;nan;101517.06;5021356;28;20183;-72
2021/12/14 01:56:35;;;;;;;54.90;22.48;;;;;;;1.37;nan;101513.53;5019821;28;20044;-71
2021/12/14 01:59:28;;;;;;;53.80;23.02;;;;;;;1.37;nan;101515.31;5021089;28;20514;-71
2021/12/14 02:02:40;;;;;;;43.58;21.42;;;;;;;1.29;nan;101497.81;5021877;28;20827;-72
2021/12/14 02:05:26;;;;;;;48.00;22.65;;;;;;;1.40;nan;101510.66;5019331;28;20068;-72
2021/12/14 02:08:20;;;;;;;48.65;21.52;;;;;;;1.32;nan;101499.31;5021785;28;20041;-73
2021/12/14 02:11:08;;;;;;;50.13;21.73;;;;;;;1.35;nan;101501.66;5024930;28;20025;-72
2021/12/14 02:13:55;;;;;;;49.10;21.58;;;;;;;1.38;nan;101506.56;5020573;28;20400;-71
2021/12/14 02:16:42;;;;;;;45.53;20.98;;;;;;;1.43;nan;101512.97;5019333;28;20045;-71
2021/12/14 02:19:29;;;;;;;42.60;21.30;;;;;;;1.38;nan;101497.00;5021391;28;20041;-72
2021/12/14 02:22:15;;;;;;;45.22;21.67;;;;;;;1.41;nan;101503.69;5020782;28;20029;-72
2021/12/14 02:25:04;;;;;;;47.33;22.10;;;;;;;1.32;nan;101489.78;5020357;28;20779;-72
2021/12/14 02:27:52;;;;;;;50.13;23.10;;;;;;;1.40;nan;101504.66;5020502;28;20083;-72
2021/12/14 02:30:42;;;;;;;39.25;18.05;;;;;;;1.34;nan;101492.22;5019189;28;20029;-72
2021/12/14 02:33:32;;;;;;;55.53;23.90;;;;;;;1.35;nan;101497.28;5017312;28;20041;-71
2021/12/14 02:36:25;;;;;;;47.40;22.33;;;;;;;1.25;nan;101499.88;5021315;28;20029;-72
2021/12/14 02:39:46;;;;;;;49.70;21.52;;;;;;;1.29;nan;101505.59;5022905;28;20084;-72
2021/12/14 02:42:32;;;;;;;47.50;21.25;;;;;;;1.31;nan;101519.25;5022906;28;20044;-72
2021/12/14 02:45:22;;;;;;;44.28;20.02;;;;;;;1.23;nan;101511.34;5025773;28;20065;-72
2021/12/14 02:48:10;;;;;;;47.10;21.10;;;;;;;0.98;nan;101473.78;5025770;28;20069;-73
2021/12/14 02:50:56;;;;;;;43.50;19.27;;;;;;;1.26;nan;101517.06;5021316;28;20401;-73
2021/12/14 02:53:45;;;;;;;41.05;18.48;;;;;;;1.15;nan;101508.59;5020152;28;20075;-73
2021/12/14 02:56:33;;;;;;;39.83;17.95;;;;;;;1.13;nan;101510.53;5020674;28;20049;-72
2021/12/14 02:59:26;;;;;;;40.92;18.60;;;;;;;1.05;nan;101503.41;5021921;28;20042;-73
2021/12/14 03:02:17;;;;;;;46.05;18.30;;;;;;;1.05;nan;101512.03;5020977;28;20053;-73
2021/12/14 03:05:15;;;;;;;36.60;16.63;;;;;;;1.03;nan;101503.56;5020934;28;20033;-73
2021/12/14 03:08:14;;;;;;;41.55;17.25;;;;;;;0.94;nan;101499.19;5021429;28;20372;-73
2021/12/14 03:11:10;;;;;;;42.97;17.83;;;;;;;0.86;nan;101499.00;5021151;28;20516;-73
2021/12/14 03:13:55;;;;;;;42.88;17.58;;;;;;;0.90;nan;101500.41;5021339;28;20034;-71
2021/12/14 03:16:42;;;;;;;42.00;16.67;;;;;;;0.97;nan;101511.06;5018019;28;20044;-71
2021/12/14 03:19:28;;;;;;;41.42;17.13;;;;;;;0.91;nan;101503.81;5020744;28;20163;-71
2021/12/14 03:23:01;;;;;;;45.40;17.55;;;;;;;0.99;nan;101514.34;5019886;28;20038;-71
2021/12/14 03:25:50;;;;;;;42.95;17.98;;;;;;;0.99;nan;101509.16;4999150;28;20038;-71
2021/12/14 03:28:37;;;;;;;39.33;16.92;;;;;;;0.94;nan;101504.38;5008916;28;20049;-72
2021/12/14 03:31:33;;;;;;;43.10;17.73;;;;;;;0.90;nan;101504.78;4996445;28;20236;-73
2021/12/14 03:34:23;;;;;;;42.08;17.90;;;;;;;0.78;nan;101491.09;4998924;28;20113;-73
2021/12/14 03:37:13;;;;;;;41.00;18.52;;;;;;;0.59;nan;101456.41;4995504;28;20038;-73
2021/12/14 03:40:02;;;;;;;37.78;17.45;;;;;;;0.69;nan;101484.94;4996322;28;20044;-72
2021/12/14 03:42:48;;;;;;;42.05;17.45;;;;;;;0.79;nan;101497.91;5002598;28;20038;-72
2021/12/14 03:45:34;;;;;;;43.63;18.27;;;;;;;0.70;nan;101483.19;5003164;28;20042;-73
2021/12/14 03:48:25;;;;;;;45.72;18.38;;;;;;;0.76;nan;101490.41;5001897;28;20038;-73
2021/12/14 03:51:11;;;;;;;40.83;18.27;;;;;;;0.73;nan;101490.69;5001293;28;20074;-72
2021/12/14 03:53:58;;;;;;;42.22;17.88;;;;;;;0.73;nan;101490.69;5005672;28;20053;-72
2021/12/14 03:56:45;;;;;;;44.60;19.70;;;;;;;0.75;nan;101496.56;5002164;28;20065;-73
2021/12/14 03:59:32;;;;;;;43.92;19.13;;;;;;;0.80;nan;101497.78;5005142;28;20037;-73
2021/12/14 04:02:19;;;;;;;46.67;18.63;;;;;;;0.69;nan;101487.53;5023183;28;20446;-73
2021/12/14 04:05:10;;;;;;;44.72;18.40;;;;;;;0.72;nan;101491.63;5027775;28;20120;-72
2021/12/14 04:07:56;;;;;;;43.63;17.73;;;;;;;0.67;nan;101499.81;5027775;28;20029;-73
2021/12/14 04:10:46;;;;;;;41.92;17.90;;;;;;;0.61;nan;101498.56;5023949;28;20053;-72
2021/12/14 04:13:33;;;;;;;;;;;;;;;0.64;nan;101511.25;5025174;28;20108;-73
2021/12/14 04:16:23;;;;;;;50.63;20.55;;;;;;;0.67;nan;101505.00;5023581;28;19939;-72
2021/12/14 04:19:13;;;;;;;50.03;22.00;;;;;;;0.60;nan;101486.56;5023746;28;20403;-72
2021/12/14 04:22:05;;;;;;;54.33;20.77;;;;;;;0.66;nan;101492.16;5025325;28;20100;-72
2021/12/14 04:24:55;;;;;;;49.72;19.38;;;;;;;0.76;nan;101511.97;5021572;28;20080;-72
2021/12/14 04:27:42;;;;;;;45.63;18.67;;;;;;;0.75;nan;101501.75;5026426;28;20041;-73
2021/12/14 04:30:28;;;;;;;49.17;19.45;;;;;;;0.74;nan;101503.53;5023055;28;20049;-72
2021/12/14 04:33:18;;;;;;;41.58;18.48;;;;;;;0.73;nan;101507.06;5023158;28;20033;-73
2021/12/14 04:36:10;;;;;;;39.28;18.48;;;;;;;0.76;nan;101511.16;5025003;28;21596;-72
2021/12/14 04:39:03;;;;;;;45.60;19.02;;;;;;;0.74;nan;101507.88;5022731;28;20398;-73
2021/12/14 04:54:59;;;;;;;45.17;20.50;;;;;;;0.59;nan;101471.94;5023060;28;20041;-72
2021/12/14 04:57:47;;;;;;;47.03;20.55;;;;;;;0.89;nan;101519.50;5023311;28;20110;-73
2021/12/14 05:00:46;;;;;;;46.10;19.88;;;;;;;0.77;nan;101512.81;5023659;28;20101;-72
2021/12/14 05:03:53;;;;;;;53.15;20.75;;;;;;;0.82;nan;101518.41;5024937;28;20102;-74
2021/12/14 05:06:55;;;;;;;46.78;20.00;;;;;;;0.82;nan;101510.63;5021854;28;20110;-72
2021/12/14 05:09:41;;;;;;;50.60;21.73;;;;;;;0.79;nan;101509.13;5024499;28;20033;-72
2021/12/14 05:12:32;;;;;;;54.10;23.02;;;;;;;0.77;nan;101495.47;5026643;28;20068;-73
2021/12/14 05:15:19;;;;;;;48.63;20.52;;;;;;;0.85;nan;101508.56;5026399;28;20057;-78
2021/12/14 05:18:11;;;;;;;54.97;22.40;;;;;;;0.87;nan;101510.22;5025513;28;20048;-77
2021/12/14 05:20:58;;;;;;;52.03;20.85;;;;;;;0.90;nan;101520.31;5022235;28;20123;-77
2021/12/14 05:23:44;;;;;;;54.17;22.23;;;;;;;0.97;nan;101524.03;5022884;28;20867;-77
2021/12/14 05:26:30;;;;;;;45.08;20.83;;;;;;;0.91;nan;101506.41;5023375;28;20460;-77
2021/12/14 05:29:22;;;;;;;51.10;21.42;;;;;;;0.96;nan;101528.41;5022648;28;20619;-77
2021/12/14 05:32:10;;;;;;;53.10;21.25;;;;;;;0.90;nan;101521.13;5024562;28;20069;-77
2021/12/14 05:34:56;;;;;;;45.83;19.83;;;;;;;0.83;nan;101507.06;5024247;28;20505;-76
2021/12/14 05:37:48;;;;;;;48.00;21.05;;;;;;;0.92;nan;101534.78;5024456;28;20045;-77
2021/12/14 05:43:26;;;;;;;55.40;21.58;;;;;;;0.91;nan;101533.16;5024958;28;20542;-77
2021/12/14 05:46:12;;;;;;;59.08;22.38;;;;;;;0.92;nan;101533.97;5026057;28;20046;-77
2021/12/14 05:49:02;;;;;;;58.45;22.70;;;;;;;0.91;nan;101533.16;5023683;28;20116;-77
2021/12/14 05:51:49;;;;;;;58.35;23.35;;;;;;;0.80;nan;101523.72;5024393;28;20041;-77
2021/12/14 05:54:35;;;;;;;57.20;23.60;;;;;;;0.61;nan;101495.16;5026356;28;20040;-78
2021/12/14 05:57:25;;;;;;;55.65;23.42;;;;;;;0.77;nan;101523.19;5025955;28;20034;-76
2021/12/14 06:00:13;;;;;;;48.65;21.02;;;;;;;0.88;nan;101555.94;5024072;28;20045;-76
2021/12/14 06:02:59;;;;;;;52.20;22.33;;;;;;;0.73;nan;101540.75;5024376;28;20045;-77
2021/12/14 06:05:45;;;;;;;57.28;25.23;;;;;;;0.76;nan;101543.06;5018933;28;20041;-77
2021/12/14 06:08:34;;;;;;;52.00;21.23;;;;;;;0.47;nan;101522.25;5021797;28;20041;-76
2021/12/14 06:11:25;;;;;;;36.38;16.52;;;;;;;0.53;nan;101544.25;5016141;28;20484;-78
2021/12/14 06:14:20;;;;;;;55.22;20.88;;;;;;;0.50;nan;101563.44;5031108;28;20120;-77
2021/12/14 06:17:06;;;;;;;50.95;21.27;;;;;;;0.52;nan;101564.13;5022138;28;20127;-76
2021/12/14 06:20:02;;;;;;;56.97;24.58;;;;;;;0.45;nan;101555.25;5024401;28;20069;-76
2021/12/14 06:22:52;;;;;;;58.72;24.15;;;;;;;0.54;nan;101580.38;5022292;28;20764;-77
2021/12/14 06:25:38;;;;;;;54.95;24.08;;;;;;;0.38;nan;101585.22;5022950;28;20044;-78
2021/12/14 06:28:26;;;;;;;55.97;22.23;;;;;;;0.36;nan;101592.28;5026162;28;20056;-78
2021/12/14 06:31:12;;;;;;;51.10;22.38;;;;;;;0.28;nan;101584.34;5024738;28;20030;-78
2021/12/14 06:34:29;;;;;;;75.22;30.25;;;;;;;0.30;nan;101598.81;5020618;28;20033;-77
2021/12/14 06:37:52;;;;;;;55.53;22.52;;;;;;;0.32;nan;101602.09;5035764;28;20061;-77
2021/12/14 06:40:41;;;;;;;57.15;23.05;;;;;;;0.27;nan;101580.13;5023903;28;20037;-78
2021/12/14 06:43:29;;;;;;;53.30;22.88;;;;;;;0.28;nan;101576.59;5024845;28;20126;-69
2021/12/14 06:46:19;;;;;;;59.42;22.88;;;;;;;0.39;nan;101586.88;5023259;28;20038;-70
2021/12/14 06:49:09;;;;;;;50.10;22.08;;;;;;;0.23;nan;101568.38;5021734;28;20438;-71
2021/12/14 06:51:56;;;;;;;54.58;23.98;;;;;;;0.24;nan;101585.53;5026391;28;20037;-76
2021/12/14 06:54:44;;;;;;;58.30;23.05;;;;;;;0.18;nan;101592.06;5026697;28;20041;-78
2021/12/14 06:57:30;;;;;;;59.05;22.83;;;;;;;0.14;nan;101599.25;5028349;28;20037;-77
2021/12/14 07:00:17;;;;;;;55.15;23.33;;;;;;;0.05;nan;101579.31;5020862;28;20836;-76
2021/12/14 07:03:04;;;;;;;61.65;24.15;;;;;;;0.10;nan;101595.31;5025607;28;20778;-77
2021/12/14 07:05:51;;;;;;;53.22;23.85;;;;;;;0.09;nan;101600.59;5023011;28;20442;-77
2021/12/14 07:08:37;;;;;;;52.83;22.98;;;;;;;0.10;nan;101605.66;5021669;28;20068;-76
2021/12/14 07:11:24;;;;;;;55.47;23.00;;;;;;;0.21;nan;101618.53;5027100;28;20045;-75
2021/12/14 07:14:37;;;;;;;56.10;24.33;;;;;;;0.18;nan;101620.56;5030187;28;20064;-76
2021/12/14 07:17:30;;;;;;;49.65;21.08;;;;;;;0.13;nan;101620.94;5032760;28;20399;-76
2021/12/14 07:20:34;;;;;;;56.35;22.80;;;;;;;0.17;nan;101626.69;5022496;28;20079;-76
2021/12/14 07:23:35;;;;;;;55.05;22.65;;;;;;;0.14;nan;101621.75;5027625;28;20069;-76
2021/12/14 07:26:21;;;;;;;58.20;23.20;;;;;;;0.13;nan;101612.34;5031472;28;20034;-76
2021/12/14 07:29:07;;;;;;;55.15;22.92;;;;;;;0.13;nan;101622.72;5032655;28;20045;-76
2021/12/14 07:31:53;;;;;;;58.05;23.40;;;;;;;0.13;nan;101620.13;5026591;28;20036;-76
2021/12/14 07:34:38;;;;;;;55.13;23.63;;;;;;;0.17;nan;101637.88;5030926;28;20496;-76
2021/12/14 07:37:35;;;;;;;57.25;22.90;;;;;;;0.13;nan;101635.66;5030013;28;20091;-76
2021/12/14 07:40:23;;;;;;;62.85;23.73;;;;;;;0.13;nan;101631.31;5031607;28;20044;-76
2021/12/14 07:43:20;;;;;;;58.47;22.58;;;;;;;0.15;nan;101620.81;5032715;28;20060;-76
2021/12/14 07:46:36;;;;;;;61.85;23.55;;;;;;;0.15;nan;101621.63;5033384;28;20124;-76
2021/12/14 07:49:36;;;;;;;55.63;22.55;;;;;;;0.20;nan;101631.63;5055594;28;20068;-76
2021/12/14 07:52:30;;;;;;;71.03;28.05;;;;;;;0.15;nan;101613.06;5020131;28;20034;-76
2021/12/14 07:55:22;;;;;;;64.47;27.00;;;;;;;0.37;nan;101628.44;5031775;28;20029;-76
2021/12/14 07:58:08;;;;;;;62.70;24.50;;;;;;;0.39;nan;101642.09;5030123;28;20495;-74
2021/12/14 08:00:54;;;;;;;58.05;24.98;;;;;;;0.26;nan;101622.50;5031309;28;20084;-75
2021/12/14 08:03:40;;;;;;;62.30;25.42;;;;;;;0.31;nan;101631.56;5030807;28;20286;-74
2021/12/14 08:06:26;;;;;;;52.75;22.95;;;;;;;0.26;nan;101615.56;5029852;28;20034;-75
2021/12/14 08:09:17;;;;;;;58.97;24.35;;;;;;;0.39;nan;101638.69;5027607;28;20158;-74
2021/12/14 08:12:03;;;;;;;56.92;23.33;;;;;;;0.36;nan;101639.78;5031379;28;20038;-75
2021/12/14 08:15:05;;;;;;;70.75;25.92;;;;;;;0.44;nan;101641.72;5028903;28;20415;-77
2021/12/14 08:18:03;;;;;;;60.47;25.80;;;;;;;0.51;nan;101653.22;5031917;28;20040;-77
2021/12/14 08:20:57;;;;;;;68.75;26.42;;;;;;;0.49;nan;101651.69;5031844;28;20124;-76
2021/12/14 08:23:52;;;;;;;61.63;24.73;;;;;;;0.51;nan;101655.00;5025504;28;20037;-75
2021/12/14 08:26:47;;;;;;;69.32;25.90;;;;;;;0.54;nan;101655.53;5033418;28;20137;-74
2021/12/14 08:29:36;;;;;;;62.10;24.98;;;;;;;0.56;nan;101656.25;5030893;28;20123;-76
2021/12/14 08:32:28;;;;;;;62.40;23.90;;;;;;;0.61;nan;101664.44;5031668;28;20034;-75
2021/12/14 08:35:14;;;;;;;58.53;24.33;;;;;;;0.57;nan;101657.88;5030834;28;20069;-76
2021/12/14 08:38:03;;;;;;;62.08;24.77;;;;;;;0.49;nan;101642.16;5035483;28;20049;-75
2021/12/14 08:40:53;;;;;;;72.20;26.98;;;;;;;0.54;nan;101640.00;5031599;28;20116;-74
2021/12/14 08:43:47;;;;;;;65.30;25.52;;;;;;;0.65;nan;101654.66;5029970;28;20049;-75
2021/12/14 08:46:33;;;;;;;74.57;26.98;;;;;;;0.75;nan;101670.25;5030584;28;20475;-74
2021/12/14 08:49:20;;;;;;;62.53;25.60;;;;;;;0.73;nan;101659.19;5032173;28;20045;-76
2021/12/14 08:52:06;;;;;;;68.28;26.05;;;;;;;0.78;nan;101664.81;5030545;28;20037;-75
2021/12/14 08:54:53;;;;;;;70.53;25.33;;;;;;;0.78;nan;101659.63;5024008;28;20041;-75
2021/12/14 08:57:40;;;;;;;70.97;25.63;;;;;;;0.75;nan;101642.56;5027914;28;20048;-75
2021/12/14 09:00:32;;;;;;;63.47;24.98;;;;;;;0.91;nan;101662.84;5033413;28;20056;-76
2021/12/14 09:03:33;;;;;;;63.53;24.20;;;;;;;0.84;nan;101638.38;5032146;28;20155;-76
2021/12/14 09:06:22;;;;;;;58.92;23.05;;;;;;;0.98;nan;101668.28;5029660;28;20513;-74
2021/12/14 09:09:14;;;;;;;63.47;24.23;;;;;;;0.99;nan;101670.78;5033596;28;20101;-76
2021/12/14 09:12:06;;;;;;;58.83;23.20;;;;;;;1.00;nan;101656.84;5025152;28;20037;-75
2021/12/14 09:14:55;;;;;;;64.15;23.33;;;;;;;1.04;nan;101662.59;5024466;28;20030;-75
2021/12/14 09:17:41;;;;;;;48.28;17.08;;;;;;;1.02;nan;101652.34;5028646;28;20136;-74
2021/12/14 09:20:33;;;;;;;59.92;23.17;;;;;;;1.06;nan;101647.72;5026977;28;20044;-74
2021/12/14 09:23:25;;;;;;;62.85;21.88;;;;;;;0.90;nan;101605.91;5030199;28;20033;-74
2021/12/14 09:26:19;;;;;;;57.45;23.02;;;;;;;1.17;nan;101633.81;5028392;28;20037;-74
2021/12/14 09:29:12;;;;;;;59.75;23.33;;;;;;;1.14;nan;101618.53;5030077;28;20040;-74
2021/12/14 09:32:00;;;;;;;60.25;24.60;;;;;;;1.18;nan;101625.09;5020385;28;20045;-74
2021/12/14 09:34:46;;;;;;;45.72;18.23;;;;;;;1.27;nan;101637.28;5026346;28;20128;-74
2021/12/14 09:37:32;;;;;;;60.60;23.75;;;;;;;1.06;nan;101585.47;5031563;28;20029;-74
2021/12/14 09:40:23;;;;;;;60.25;25.60;;;;;;;1.33;nan;101631.53;5035647;28;20068;-74
2021/12/14 09:43:10;;;;;;;61.15;27.75;;;;;;;1.37;nan;101621.72;5024704;28;20028;-74
2021/12/14 09:45:58;;;;;;;54.88;24.50;;;;;;;1.35;nan;101614.06;5025078;28;20147;-75
2021/12/14 09:49:06;;;;;;;55.80;23.60;;;;;;;1.49;nan;101610.25;5029105;28;20056;-73
2021/12/14 09:51:57;;;;;;;59.95;24.65;;;;;;;1.56;nan;101628.72;5023083;28;20052;-76
2021/12/14 09:54:43;;;;;;;58.10;22.35;;;;;;;1.58;nan;101609.44;5030090;28;20522;-76
2021/12/14 09:57:34;;;;;;;58.10;23.70;;;;;;;1.73;nan;101622.84;5029862;28;20063;-77
2021/12/14 10:00:25;;;;;;;56.35;21.63;;;;;;;1.50;nan;101580.75;5031702;28;20043;-78
2021/12/14 10:03:11;;;;;;;56.97;22.70;;;;;;;1.75;nan;101597.56;5028248;28;20103;-79
2021/12/14 10:06:04;;;;;;;56.08;22.98;;;;;;;1.85;nan;101600.16;5030869;28;20398;-79
2021/12/14 10:08:58;;;;;;;53.00;24.48;;;;;;;1.92;nan;101609.03;5027395;28;20600;-79
2021/12/14 10:14:44;;;;;;;;;;;;;;;1.98;nan;101616.25;5030628;28;20445;-79
2021/12/14 10:17:30;;;;;;;53.20;22.80;;;;;;;1.92;nan;101606.44;5030319;28;19917;-79
2021/12/14 10:20:24;;;;;;;48.67;21.10;;;;;;;1.91;nan;101590.00;5026229;28;20048;-79
2021/12/14 10:23:14;;;;;;;43.83;19.88;;;;;;;2.01;nan;101604.75;5028243;28;20503;-79
2021/12/14 10:26:00;;;;;;;49.67;21.60;;;;;;;2.03;nan;101580.28;5029911;28;20033;-79
2021/12/14 10:28:49;;;;;;;45.60;20.02;;;;;;;2.20;nan;101594.34;5030101;28;20124;-79
2021/12/14 10:31:41;;;;;;;50.00;20.97;;;;;;;2.24;nan;101597.50;5026643;28;20443;-79
2021/12/14 10:34:29;;;;;;;49.22;21.23;;;;;;;2.32;nan;101603.63;5024988;28;20263;-79
2021/12/14 10:37:38;;;;;;;45.88;20.38;;;;;;;2.45;nan;101607.69;5022757;28;20500;-79
2021/12/14 10:43:39;;;;;;;45.10;19.80;;;;;;;2.62;nan;101608.72;5029987;28;20033;-78
2021/12/14 10:46:31;;;;;;;37.65;15.55;;;;;;;2.72;nan;101599.91;5029262;28;20049;-77
2021/12/14 10:49:20;;;;;;;32.72;15.13;;;;;;;2.71;nan;101593.09;5027477;28;20045;-77
2021/12/14 10:52:16;;;;;;;40.70;18.55;;;;;;;2.85;nan;101602.19;5034840;28;20029;-78
2021/12/14 10:55:14;;;;;;;40.38;16.95;;;;;;;2.86;nan;101598.63;5034874;28;20060;-78
2021/12/14 10:58:01;;;;;;;40.10;17.93;;;;;;;2.92;nan;101597.22;5027965;28;20045;-77
2021/12/14 11:00:57;;;;;;;43.33;19.83;;;;;;;2.96;nan;101594.19;5030765;28;20049;-79
2021/12/14 11:03:48;;;;;;;46.15;19.92;;;;;;;3.02;nan;101590.19;5033814;28;20030;-78
2021/12/14 11:06:42;;;;;;;40.25;18.05;;;;;;;3.12;nan;101600.56;5029574;28;20045;-79
2021/12/14 11:09:45;;;;;;;40.92;17.48;;;;;;;2.97;nan;101597.63;5032800;28;20038;-77
2021/12/14 11:12:35;;;;;;;40.67;18.33;;;;;;;3.16;nan;101602.72;5029072;28;20503;-74
2021/12/14 11:15:26;;;;;;;38.63;17.58;;;;;;;3.13;nan;101597.78;5033345;28;20041;-75
2021/12/14 11:18:20;;;;;;;41.33;18.83;;;;;;;3.23;nan;101591.69;5032967;28;20029;-74
2021/12/14 11:21:12;;;;;;;38.15;16.83;;;;;;;3.26;nan;101594.03;5033551;28;20099;-75
2021/12/14 11:23:58;;;;;;;37.63;17.55;;;;;;;3.13;nan;101584.78;5032051;28;20041;-76
2021/12/14 11:26:44;;;;;;;42.40;18.63;;;;;;;3.02;nan;101581.56;5026183;28;20049;-76
2021/12/14 11:29:30;;;;;;;40.55;18.25;;;;;;;3.03;nan;101591.00;5032266;28;20112;-76
2021/12/14 11:32:23;;;;;;;44.42;18.05;;;;;;;3.01;nan;101583.34;5032369;28;21774;-74
2021/12/14 11:35:29;;;;;;;41.63;18.75;;;;;;;3.01;nan;101575.53;5031351;28;20380;-75
2021/12/14 11:38:30;;;;;;;42.25;19.15;;;;;;;3.06;nan;101595.91;5028008;28;20033;-73
2021/12/14 11:41:24;;;;;;;44.47;20.23;;;;;;;3.04;nan;101595.25;5042507;28;20040;-80
2021/12/14 11:44:22;;;;;;;42.75;19.33;;;;;;;3.02;nan;101594.56;5031630;28;20084;-79
2021/12/14 11:48:03;;;;;;;41.55;18.38;;;;;;;2.90;nan;101579.16;5026224;28;20120;-80
2021/12/14 11:50:35;;;;;;;43.22;19.02;;;;;;;2.89;nan;101592.31;5026114;28;20048;-79
2021/12/14 11:53:22;;;;;;;44.60;20.25;;;;;;;2.80;nan;101580.97;5023744;28;20087;-77
2021/12/14 11:56:16;;;;;;;42.95;19.30;;;;;;;2.74;nan;101571.97;5026851;28;20392;-79
2021/12/14 11:59:07;;;;;;;50.75;20.52;;;;;;;2.69;nan;101579.41;5032149;28;20411;-79
2021/12/14 12:01:54;;;;;;;42.95;20.23;;;;;;;2.65;nan;101570.25;5032555;28;20072;-78
2021/12/14 12:04:44;;;;;;;50.15;20.77;;;;;;;2.74;nan;101571.97;5032653;28;20100;-78
2021/12/14 12:10:39;;;;;;;43.58;19.23;;;;;;;2.78;nan;101567.31;5031519;28;20040;-79
2021/12/14 12:13:37;;;;;;;43.13;20.52;;;;;;;2.62;nan;101541.94;5032315;28;20033;-79
2021/12/14 12:16:25;;;;;;;43.50;18.63;;;;;;;2.68;nan;101550.94;5026070;28;20147;-79
2021/12/14 12:19:24;;;;;;;45.10;19.27;;;;;;;2.65;nan;101570.25;5034991;28;20450;-79
2021/12/14 12:22:15;;;;;;;46.22;19.25;;;;;;;2.62;nan;101554.94;5030763;28;20041;-80
2021/12/14 12:25:03;;;;;;;45.83;20.27;;;;;;;2.70;nan;101549.81;5032211;28;20037;-79
2021/12/14 12:27:54;;;;;;;47.30;20.55;;;;;;;2.75;nan;101558.03;5032200;28;20087;-79
2021/12/14 12:31:06;;;;;;;42.85;19.95;;;;;;;2.73;nan;101552.16;5032558;28;20033;-79
2021/12/14 12:33:55;;;;;;;48.13;20.77;;;;;;;2.79;nan;101553.34;5057507;28;20121;-79
2021/12/14 12:36:43;;;;;;;44.67;20.20;;;;;;;2.80;nan;101554.97;5031570;28;20033;-79
2021/12/14 12:39:31;;;;;;;50.72;22.67;;;;;;;2.70;nan;101549.00;5031989;28;20045;-80
2021/12/14 12:42:17;;;;;;;43.45;19.90;;;;;;;2.68;nan;101541.38;5031391;28;20030;-78
2021/12/14 12:45:22;;;;;;;47.60;21.42;;;;;;;2.67;nan;101542.31;5029804;28;20030;-79
2021/12/14 12:48:08;;;;;;;42.92;19.80;;;;;;;2.69;nan;101545.59;5023965;28;20096;-79
2021/12/14 12:50:54;;;;;;;51.20;20.73;;;;;;;2.69;nan;101550.78;5028112;28;20044;-79
2021/12/14 12:53:40;;;;;;;45.97;20.02;;;;;;;2.61;nan;101535.09;5030734;28;20164;-79
2021/12/14 12:56:26;;;;;;;48.60;22.15;;;;;;;2.51;nan;101524.75;5027385;28;20034;-78
2021/12/14 12:59:13;;;;;;;41.03;18.13;;;;;;;2.62;nan;101531.53;5030449;28;20029;-79
2021/12/14 13:02:21;;;;;;;44.13;20.05;;;;;;;2.64;nan;101526.19;5029120;28;20046;-79
2021/12/14 13:05:33;;;;;;;43.40;19.60;;;;;;;2.69;nan;101537.78;5032595;28;20034;-80
2021/12/14 13:08:45;;;;;;;50.30;20.50;;;;;;;2.78;nan;101543.91;5024113;28;20034;-79
2021/12/14 13:11:39;;;;;;;47.20;21.00;;;;;;;2.73;nan;101544.34;5034141;28;20038;-80
2021/12/14 13:14:25;;;;;;;45.65;21.15;;;;;;;2.69;nan;101534.38;5031796;28;20183;-80
2021/12/14 13:17:18;;;;;;;46.47;20.23;;;;;;;2.69;nan;101537.78;5030013;28;20526;-79
2021/12/14 13:20:06;;;;;;;48.25;19.83;;;;;;;2.75;nan;101524.22;5028921;28;20044;-79
2021/12/14 13:22:52;;;;;;;49.50;20.23;;;;;;;2.94;nan;101528.47;5023884;28;20045;-80
2021/12/14 13:25:40;;;;;;;47.92;20.77;;;;;;;2.90;nan;101528.94;5028193;28;20033;-80
2021/12/14 13:28:40;;;;;;;51.30;21.80;;;;;;;2.86;nan;101517.97;5031006;28;20044;-79
2021/12/14 13:31:28;;;;;;;;;;;;;;;2.92;nan;101534.78;5029065;28;20045;-80
2021/12/14 13:34:43;;;;;;;37.63;18.38;;;;;;;2.77;nan;101527.47;5023844;28;19935;-80
2021/12/14 13:37:36;;;;;;;48.17;19.23;;;;;;;2.75;nan;101537.22;5028487;28;20108;-80
2021/12/14 13:40:31;;;;;;;39.90;17.83;;;;;;;2.79;nan;101550.75;5031193;28;20083;-80
2021/12/14 13:43:17;;;;;;;44.13;18.38;;;;;;;2.76;nan;101545.84;5031171;28;20040;-79
2021/12/14 13:46:05;;;;;;;54.47;20.85;;;;;;;2.63;nan;101533.16;5027702;28;20114;-80
2021/12/14 13:48:51;;;;;;;40.15;18.02;;;;;;;2.51;nan;101534.31;5028624;28;20048;-80
2021/12/14 13:51:37;;;;;;;42.35;18.70;;;;;;;2.59;nan;101555.22;5027388;28;20120;-79
2021/12/14 13:54:24;;;;;;;41.95;19.75;;;;;;;2.48;nan;101550.22;5025338;28;20040;-76
2021/12/14 13:57:10;;;;;;;43.75;19.00;;;;;;;2.48;nan;101545.81;5033125;28;20041;-78
2021/12/14 13:59:55;;;;;;;40.95;19.35;;;;;;;2.33;nan;101534.25;5025122;28;20052;-76
2021/12/14 14:02:41;;;;;;;48.03;21.38;;;;;;;2.37;nan;101545.19;5023709;28;20052;-76
2021/12/14 14:05:29;;;;;;;39.53;19.85;;;;;;;2.36;nan;101565.16;5029747;28;20034;-80
2021/12/14 14:08:22;;;;;;;39.10;19.52;;;;;;;2.26;nan;101566.97;5024238;28;20037;-77
2021/12/14 14:11:26;;;;;;;49.97;21.20;;;;;;;2.22;nan;101565.63;5031202;28;20443;-78